Shalalth, Canada
Current Conditions -  °F | °C
As of 1:00 PM on Saturday 22 Nov 2014 (Local Time) from CYIN Reporting Station
Overcast Overcast  
Wind Chill: -2°   Ceiling: 6500
Heat Index:   Visibility: 9mi
Dew Point: -2°   Wind: 6mph
Humidity: 81%   Direction: 130°SE
Pressure: 29.59"   Gusts: NA
Location:  50.73°N, 122.23°W
Report Text: CYIN 222100Z AUTO 13005KT 9SM BKN065 OVC076 01/M02 A2959 RMK SLP050
Loading
Personal Weather Stations






























Interactive Weather Map New forecast layout! Learn more

10-Day Weather Forecast

Advertisements
Track Severe Weather on mobile